map of HAH home
HAH - Airport
Location
City:  Moroni, Comoros
Near (Alt.):Hahaya
Name:Prince Sad Ibrahim International Airport
Old (Alt.):Moroni Hahaya International Airport
ICAO:FMCH
IATA:HAH

Details
Type:Airport (Aerodrome, Airfield)
Use:Public/Civil, International (customs port of entry)
Latitude:1132'11"S (-11.536518)
Longitude:4316'17"E (43.271325)
Elevation:89 ft (27 m)
Variation:6.42W (WMM2015 magnetic declination)
-0.02 annual change
Runways:1
Longest:9514 × 148 ft (2900 × 45 m), paved

Time
Time Zone:UTC+3
Local Time:

Weather
METAR:FMCH 172200Z 07004KT 350V110 9999 FEW020 27/25 Q1011 NOSIG
TAF:FMCH 171100Z 1712/1818 24010KT 9999 FEW020 SCT030
BECMG 1715/1717 10003KT
BECMG 1805/1807 20010KT TAF FMEE 171100Z 1712/1818 09006KT 9999 FEW015TCU
TEMPO 1720/1802 4500 SHRA SCT020TCU

Related Locations
Nearby:
Farthest:ITO: 11103 mi / 17869 km
Hilo [Hilo Intl], Hawaii, HI, US

Find:

   beyond  
but within

Other Information
Maps:
NOTAMs:
Links:
Sources:

  
flag of Comoros   

Sectional Chart

Flight Planning
at skyvector.com

Satellite Image

Google Maps Satellite view

 

Copyright © 2004-2017 Karl L. Swartz. All rights reserved.
The Great Circle Mapper name and logo are trademarks of the Great Circle Mapper.
All other trademarks mentioned herein belong to their respective owners.
Please see credits for attibutions and further copyright information.

  Follow gcmap on Facebook Follow gcmap on Twitter Follow gcmap on Google+ GCmap on LinkedIn

hCard Microformat

Geo Microformat